createdAt,value
2023-12-10T00:00:22.273Z,99870.60
2023-12-10T00:03:37.571Z,99871.08
2023-12-10T00:06:26.922Z,99875.79
2023-12-10T00:09:18.183Z,99870.77
2023-12-10T00:12:00.617Z,99869.29
2023-12-10T00:14:54.626Z,99864.59
2023-12-10T00:17:45.222Z,99861.57
2023-12-10T00:20:34.716Z,99854.92
2023-12-10T00:23:23.925Z,99846.60
2023-12-10T00:26:13.921Z,99849.27
2023-12-10T00:29:04.203Z,99843.35
2023-12-10T00:31:53.266Z,99834.17
2023-12-10T00:34:44.516Z,99830.51
2023-12-10T00:37:33.885Z,99836.73
2023-12-10T00:40:22.460Z,99844.50
2023-12-10T00:43:13.246Z,99850.26
2023-12-10T00:46:02.409Z,99849.98
2023-12-10T00:48:42.306Z,99854.77
2023-12-10T00:51:31.805Z,99854.45
2023-12-10T00:54:22.397Z,99859.20
2023-12-10T00:57:13.254Z,99867.77
2023-12-10T01:00:02.991Z,99864.63
2023-12-10T01:02:52.544Z,99863.84
2023-12-10T01:05:44.093Z,99867.33
2023-12-10T01:08:33.635Z,99862.41
2023-12-10T01:11:23.852Z,99863.13
2023-12-10T01:14:16.153Z,99870.36
2023-12-10T01:17:08.774Z,99866.39
2023-12-10T01:20:00.338Z,99865.88
2023-12-10T01:22:49.624Z,99862.13
2023-12-10T01:25:39.056Z,99856.83
2023-12-10T01:28:32.037Z,99853.13
2023-12-10T01:31:24.332Z,99853.88
2023-12-10T01:34:13.106Z,99851.30
2023-12-10T01:37:05.752Z,99854.16
2023-12-10T01:39:54.689Z,99857.45
2023-12-10T01:42:45.211Z,99858.91
2023-12-10T01:45:34.548Z,99859.61
2023-12-10T01:49:25.962Z,99856.59
2023-12-10T01:52:40.207Z,99861.36
2023-12-10T01:55:30.098Z,99862.27
2023-12-10T01:58:24.437Z,99867.39
2023-12-10T02:01:09.759Z,99865.80
2023-12-10T02:04:06.557Z,99865.54
2023-12-10T02:06:55.827Z,99869.92
2023-12-10T02:09:45.379Z,99872.14
2023-12-10T02:12:36.220Z,99870.73
2023-12-10T02:15:28.849Z,99867.16
2023-12-10T02:18:20.698Z,99865.79
2023-12-10T02:21:11.861Z,99866.02
2023-12-10T02:24:32.147Z,99859.83
2023-12-10T02:27:27.563Z,99857.81
2023-12-10T02:30:17.787Z,99854.03
2023-12-10T02:40:45.450Z,99842.89
2023-12-10T02:43:38.064Z,99833.36
2023-12-10T02:46:54.835Z,99826.98
2023-12-10T02:50:27.077Z,99822.08
2023-12-10T02:58:25.092Z,99812.16
2023-12-10T03:02:27.131Z,99815.71
2023-12-10T03:06:25.120Z,99813.38
2023-12-10T03:38:26.045Z,99787.58
2023-12-10T03:45:39.482Z,99768.40
2023-12-10T03:48:43.760Z,99761.80
2023-12-10T03:51:33.163Z,99759.48
2023-12-10T03:54:22.400Z,99760.59
2023-12-10T03:57:11.736Z,99764.34
2023-12-10T04:00:05.324Z,99772.14
2023-12-10T04:02:57.390Z,99773.17
2023-12-10T04:05:46.655Z,99773.35
2023-12-10T04:08:35.640Z,99772.59
2023-12-10T04:11:24.288Z,99780.27
2023-12-10T04:14:13.457Z,99779.42
2023-12-10T04:17:07.312Z,99774.80
2023-12-10T04:19:55.533Z,99779.95
2023-12-10T04:22:43.497Z,99780.11
2023-12-10T04:25:31.513Z,99783.41
2023-12-10T04:28:27.006Z,99787.52
2023-12-10T04:31:16.712Z,99779.02
2023-12-10T04:34:06.162Z,99784.91
2023-12-10T04:36:55.537Z,99784.77
2023-12-10T04:39:47.202Z,99782.80
2023-12-10T04:42:39.958Z,99775.05
2023-12-10T04:45:29.593Z,99768.21
2023-12-10T04:48:18.782Z,99769.56
2023-12-10T04:51:08.868Z,99772.42
2023-12-10T04:53:58.074Z,99772.35
2023-12-10T04:56:48.435Z,99762.84
2023-12-10T04:59:37.706Z,99766.94
2023-12-10T05:02:26.232Z,99772.17
2023-12-10T05:05:18.721Z,99778.05
2023-12-10T05:08:07.876Z,99778.77
2023-12-10T05:12:05.825Z,99780.20
2023-12-10T05:14:27.615Z,99784.23
2023-12-10T05:17:20.459Z,99782.50
2023-12-10T05:20:11.471Z,99783.23
2023-12-10T05:23:03.105Z,99774.44
2023-12-10T05:25:52.520Z,99774.70
2023-12-10T05:28:40.560Z,99783.02
2023-12-10T05:31:35.641Z,99785.95
2023-12-10T05:34:24.584Z,99783.17
2023-12-10T05:37:16.763Z,99787.24
2023-12-10T05:40:08.171Z,99796.88
2023-12-10T05:42:57.636Z,99804.92
2023-12-10T05:45:46.842Z,99809.02
2023-12-10T05:48:36.276Z,99809.67
2023-12-10T05:51:28.739Z,99818.21
2023-12-10T05:54:38.325Z,99823.47
2023-12-10T05:57:28.378Z,99825.81
2023-12-10T06:00:19.748Z,99825.09
2023-12-10T06:03:11.151Z,99830.40
2023-12-10T06:06:00.479Z,99832.73
2023-12-10T06:08:49.826Z,99839.70
2023-12-10T06:11:39.953Z,99850.06
2023-12-10T06:14:28.760Z,99853.38
2023-12-10T06:17:17.250Z,99849.08
2023-12-10T06:20:10.099Z,99855.28
2023-12-10T06:22:59.215Z,99863.48
2023-12-10T06:25:53.082Z,99864.84
2023-12-10T06:28:42.776Z,99856.17
2023-12-10T06:31:39.195Z,99852.47
2023-12-10T06:34:28.609Z,99851.29
2023-12-10T06:37:17.671Z,99841.55
2023-12-10T06:40:09.973Z,99836.19
2023-12-10T06:42:59.124Z,99838.65
2023-12-10T06:45:49.070Z,99851.79
2023-12-10T06:48:40.997Z,99855.92
2023-12-10T06:51:30.597Z,99855.34
2023-12-10T06:54:23.601Z,99851.19
2023-12-10T06:57:33.198Z,99848.63
2023-12-10T07:00:26.961Z,99851.55
2023-12-10T07:03:17.479Z,99846.15
2023-12-10T07:06:07.928Z,99849.48
2023-12-10T07:08:50.922Z,99854.79
2023-12-10T07:11:39.203Z,99857.03
2023-12-10T07:14:29.642Z,99863.44
2023-12-10T07:17:19.073Z,99860.06
2023-12-10T07:20:10.044Z,99863.83
2023-12-10T07:22:59.698Z,99867.64
2023-12-10T07:25:48.635Z,99869.52
2023-12-10T07:28:38.218Z,99882.84
2023-12-10T07:31:27.665Z,99888.05
2023-12-10T07:34:16.931Z,99889.11
2023-12-10T07:37:06.878Z,99896.31
2023-12-10T07:39:56.694Z,99902.44
2023-12-10T07:42:46.404Z,99902.20
2023-12-10T07:45:35.769Z,99902.87
2023-12-10T07:48:28.597Z,99898.81
2023-12-10T07:51:18.367Z,99893.39
2023-12-10T07:54:07.490Z,99902.10
2023-12-10T07:56:58.941Z,99896.14
2023-12-10T07:59:48.202Z,99904.52
2023-12-10T08:02:37.546Z,99910.27
2023-12-10T08:05:26.858Z,99919.45
2023-12-10T08:08:17.973Z,99918.48
2023-12-10T08:11:10.063Z,99916.10
2023-12-10T08:13:59.346Z,99917.11
2023-12-10T08:17:14.435Z,99921.32
2023-12-10T08:20:05.651Z,99923.50
2023-12-10T08:22:54.760Z,99921.02
2023-12-10T08:25:44.150Z,99917.86
2023-12-10T08:28:33.921Z,99906.74
2023-12-10T08:31:26.214Z,99906.75
2023-12-10T08:34:15.183Z,99900.45
2023-12-10T08:37:04.658Z,99893.64
2023-12-10T08:39:54.032Z,99895.51
2023-12-10T08:42:45.518Z,99895.12
2023-12-10T08:45:36.018Z,99895.02
2023-12-10T08:48:29.671Z,99901.46
2023-12-10T08:51:18.976Z,99910.61
2023-12-10T08:54:09.483Z,99913.05
2023-12-10T08:56:57.732Z,99913.92
2023-12-10T09:00:00.738Z,99908.48
2023-12-10T09:02:52.795Z,99913.16
2023-12-10T09:05:42.189Z,99914.27
2023-12-10T09:08:31.208Z,99907.39
2023-12-10T09:11:20.598Z,99903.21
2023-12-10T09:14:11.664Z,99905.54
2023-12-10T09:17:00.990Z,99912.13
2023-12-10T09:19:50.465Z,99906.23
2023-12-10T09:22:33.413Z,99898.09
2023-12-10T09:25:45.021Z,99897.57
2023-12-10T09:28:35.075Z,99900.84
2023-12-10T09:31:30.775Z,99890.02
2023-12-10T09:34:13.554Z,99888.52
2023-12-10T09:37:24.657Z,99886.95
2023-12-10T09:40:10.863Z,99892.82
2023-12-10T09:43:00.086Z,99894.19
2023-12-10T09:45:49.708Z,99892.68
2023-12-10T09:48:45.792Z,99892.74
2023-12-10T09:51:36.941Z,99888.64
2023-12-10T09:54:30.074Z,99888.92
2023-12-10T09:57:23.035Z,99896.67
2023-12-10T10:00:17.767Z,99897.35
2023-12-10T10:03:07.952Z,99892.61
2023-12-10T10:05:57.325Z,99899.00
2023-12-10T10:08:48.109Z,99901.46
2023-12-10T10:11:38.359Z,99891.08
2023-12-10T10:14:30.127Z,99883.60
2023-12-10T10:17:27.809Z,99891.58
2023-12-10T10:20:17.654Z,99887.73
2023-12-10T10:23:09.099Z,99894.33
2023-12-10T10:25:58.227Z,99885.52
2023-12-10T10:28:48.393Z,99881.91
2023-12-10T10:31:48.382Z,99883.98
2023-12-10T10:34:38.852Z,99876.95
2023-12-10T10:37:31.486Z,99871.51
2023-12-10T10:40:20.872Z,99873.71
2023-12-10T10:43:12.267Z,99873.30
2023-12-10T10:46:03.872Z,99870.05
2023-12-10T10:48:55.849Z,99868.81
2023-12-10T10:52:14.466Z,99869.35
2023-12-10T10:55:07.061Z,99868.88
2023-12-10T10:57:56.050Z,99864.33
2023-12-10T11:00:45.549Z,99869.65
2023-12-10T11:03:35.867Z,99865.91
2023-12-10T11:06:29.545Z,99864.40
2023-12-10T11:09:20.226Z,99868.86
2023-12-10T11:12:10.399Z,99865.45
2023-12-10T11:14:53.684Z,99876.27
2023-12-10T11:17:52.592Z,99875.10
2023-12-10T11:20:47.716Z,99876.53
2023-12-10T11:23:37.295Z,99881.94
2023-12-10T11:26:40.240Z,99882.98
2023-12-10T11:29:30.169Z,99883.10
2023-12-10T11:32:19.301Z,99883.50
2023-12-10T11:35:09.453Z,99884.11
2023-12-10T11:38:02.712Z,99884.70
2023-12-10T11:40:56.728Z,99891.59
2023-12-10T11:43:52.752Z,99889.52
2023-12-10T11:46:49.962Z,99887.30
2023-12-10T11:50:26.292Z,99890.31
2023-12-10T11:52:50.897Z,99891.98
2023-12-10T11:55:42.218Z,99888.17
2023-12-10T11:58:34.225Z,99895.38
2023-12-10T12:01:23.707Z,99893.54
2023-12-10T12:04:17.950Z,99889.86
2023-12-10T12:07:08.262Z,99892.04
2023-12-10T12:10:00.839Z,99890.98
2023-12-10T12:12:50.394Z,99889.90
2023-12-10T12:15:46.356Z,99890.61
2023-12-10T12:18:35.848Z,99890.36
2023-12-10T12:21:28.073Z,99888.17
2023-12-10T12:24:17.308Z,99885.02
2023-12-10T12:27:07.917Z,99880.91
2023-12-10T12:29:48.160Z,99881.13
2023-12-10T12:32:37.833Z,99878.10
2023-12-10T12:35:28.050Z,99876.57
2023-12-10T12:38:18.327Z,99875.48
2023-12-10T12:41:08.201Z,99871.98
2023-12-10T12:44:00.390Z,99871.48
2023-12-10T12:46:53.692Z,99871.67
2023-12-10T12:49:43.884Z,99870.48
2023-12-10T12:52:35.217Z,99868.64
2023-12-10T12:55:27.628Z,99873.48
2023-12-10T12:58:16.396Z,99876.04
2023-12-10T13:01:07.503Z,99875.70
2023-12-10T13:04:04.062Z,99884.41
2023-12-10T13:06:53.954Z,99888.92
2023-12-10T13:09:43.234Z,99890.96
2023-12-10T13:12:32.728Z,99896.14
2023-12-10T13:15:15.458Z,99900.17
2023-12-10T13:18:04.814Z,99906.35
2023-12-10T13:20:53.917Z,99907.05
2023-12-10T13:23:42.099Z,99902.02
2023-12-10T13:26:33.094Z,99910.09
2023-12-10T13:29:22.464Z,99907.61
2023-12-10T13:32:11.821Z,99908.58
2023-12-10T13:35:02.575Z,99909.89
2023-12-10T13:37:54.034Z,99911.30
2023-12-10T13:40:44.085Z,99910.54
2023-12-10T13:43:36.397Z,99907.97
2023-12-10T13:46:27.498Z,99905.77
2023-12-10T13:49:17.126Z,99904.01
2023-12-10T13:52:10.167Z,99904.99
2023-12-10T13:54:59.800Z,99897.68
2023-12-10T13:57:49.627Z,99902.36
2023-12-10T14:00:39.461Z,99907.28
2023-12-10T14:03:32.350Z,99909.64
2023-12-10T14:06:21.880Z,99911.52
2023-12-10T14:09:16.019Z,99905.73
2023-12-10T14:11:57.991Z,99907.36
2023-12-10T14:14:52.105Z,99908.79
2023-12-10T14:17:41.445Z,99904.00
2023-12-10T14:20:31.092Z,99902.66
2023-12-10T14:23:20.165Z,99899.79
2023-12-10T14:26:10.506Z,99897.91
2023-12-10T14:29:00.308Z,99897.78
2023-12-10T14:31:49.992Z,99901.65
2023-12-10T14:34:39.782Z,99904.89
2023-12-10T14:37:29.401Z,99907.36
2023-12-10T14:40:17.738Z,99913.14
2023-12-10T14:43:11.250Z,99907.80
2023-12-10T14:46:00.277Z,99901.94
2023-12-10T14:48:56.600Z,99899.36
2023-12-10T14:51:45.869Z,99905.52
2023-12-10T14:54:35.561Z,99908.56
2023-12-10T14:58:25.918Z,99907.40
2023-12-10T15:00:35.784Z,99908.92
2023-12-10T15:03:34.411Z,99917.68
2023-12-10T15:06:26.858Z,99926.14
2023-12-10T15:09:17.252Z,99929.75
2023-12-10T15:12:10.310Z,99935.95
2023-12-10T15:14:59.683Z,99929.96
2023-12-10T15:17:53.268Z,99926.49
2023-12-10T15:20:42.569Z,99926.98
2023-12-10T15:23:32.413Z,99929.90
2023-12-10T15:26:21.885Z,99924.10
2023-12-10T15:29:14.152Z,99922.54
2023-12-10T15:32:03.694Z,99919.74
2023-12-10T15:34:55.910Z,99922.42
2023-12-10T15:37:45.632Z,99920.73
2023-12-10T15:40:31.871Z,99920.80
2023-12-10T15:43:23.217Z,99919.85
2023-12-10T15:46:12.840Z,99915.48
2023-12-10T15:49:03.916Z,99915.06
2023-12-10T15:51:54.916Z,99913.06
2023-12-10T15:54:44.176Z,99916.63
2023-12-10T15:57:35.281Z,99912.83
2023-12-10T16:00:26.897Z,99917.30
2023-12-10T16:03:36.639Z,99919.70
2023-12-10T16:06:30.343Z,99923.18
2023-12-10T16:09:20.507Z,99916.63
2023-12-10T16:12:12.658Z,99905.75
2023-12-10T16:15:04.103Z,99905.41
2023-12-10T16:17:56.924Z,99900.73
2023-12-10T16:20:39.554Z,99892.91
2023-12-10T16:23:31.816Z,99897.42
2023-12-10T16:26:23.013Z,99902.70
2023-12-10T16:29:15.560Z,99902.61
2023-12-10T16:32:11.024Z,99901.95
2023-12-10T16:34:51.296Z,99910.10
2023-12-10T16:37:50.564Z,99912.40
2023-12-10T16:40:39.789Z,99919.31
2023-12-10T16:43:33.331Z,99914.39
2023-12-10T16:46:22.645Z,99914.13
2023-12-10T16:49:19.100Z,99914.38
2023-12-10T16:52:09.411Z,99914.45
2023-12-10T16:55:03.824Z,99911.02
2023-12-10T16:57:57.362Z,99911.98
2023-12-10T17:00:52.946Z,99908.67
2023-12-10T17:03:43.799Z,99900.91
2023-12-10T17:06:38.294Z,99895.02
2023-12-10T17:09:29.614Z,99897.99
2023-12-10T17:12:19.508Z,99895.80
2023-12-10T17:15:13.554Z,99895.31
2023-12-10T17:18:07.383Z,99896.88
2023-12-10T17:21:51.267Z,99895.05
2023-12-10T17:24:09.926Z,99888.52
2023-12-10T17:27:04.187Z,99885.39
2023-12-10T17:30:08.859Z,99885.98
2023-12-10T17:32:58.772Z,99889.65
2023-12-10T17:35:48.249Z,99884.85
2023-12-10T17:38:48.234Z,99888.44
2023-12-10T17:41:42.637Z,99881.44
2023-12-10T17:44:37.535Z,99881.67
2023-12-10T17:47:42.050Z,99878.89
2023-12-10T17:50:33.117Z,99874.70
2023-12-10T17:53:23.649Z,99872.63
2023-12-10T17:56:14.150Z,99866.70
2023-12-10T17:59:08.445Z,99865.04
2023-12-10T18:01:58.249Z,99865.71
2023-12-10T18:05:01.440Z,99861.74
2023-12-10T18:07:52.077Z,99861.26
2023-12-10T18:10:37.404Z,99856.52
2023-12-10T18:13:29.289Z,99854.70
2023-12-10T18:16:22.368Z,99852.70
2023-12-10T18:19:14.118Z,99857.44
2023-12-10T18:22:06.685Z,99853.06
2023-12-10T18:24:55.761Z,99856.89
2023-12-10T18:27:45.570Z,99860.40
2023-12-10T18:30:36.395Z,99856.77
2023-12-10T18:33:28.288Z,99856.92
2023-12-10T18:36:18.048Z,99853.96
2023-12-10T18:39:08.496Z,99851.31
2023-12-10T18:41:58.893Z,99849.10
2023-12-10T18:44:49.186Z,99839.94
2023-12-10T18:48:08.033Z,99829.73
2023-12-10T18:51:02.497Z,99825.42
2023-12-10T18:53:53.672Z,99824.95
2023-12-10T18:56:43.098Z,99824.98
2023-12-10T18:59:35.265Z,99823.62
2023-12-10T19:02:26.434Z,99822.97
2023-12-10T19:05:17.045Z,99815.89
2023-12-10T19:08:07.608Z,99815.05
2023-12-10T19:10:57.182Z,99805.08
2023-12-10T19:13:48.939Z,99798.91
2023-12-10T19:17:08.867Z,99792.41
2023-12-10T19:20:03.089Z,99787.83
2023-12-10T19:22:54.184Z,99788.81
2023-12-10T19:25:48.260Z,99785.45
2023-12-10T19:28:37.680Z,99777.29
2023-12-10T19:31:44.295Z,99781.73
2023-12-10T19:34:35.112Z,99783.18
2023-12-10T19:37:25.839Z,99781.34
2023-12-10T19:40:15.641Z,99776.86
2023-12-10T19:43:05.562Z,99782.02
2023-12-10T19:45:55.072Z,99778.27
2023-12-10T19:48:47.435Z,99775.59
2023-12-10T19:51:36.836Z,99771.85
2023-12-10T19:54:31.475Z,99768.67
2023-12-10T19:57:20.766Z,99766.56
2023-12-10T20:00:11.715Z,99769.36
2023-12-10T20:03:01.816Z,99767.15
2023-12-10T20:05:53.441Z,99765.50
2023-12-10T20:08:43.298Z,99760.22
2023-12-10T20:11:35.545Z,99757.36
2023-12-10T20:14:26.491Z,99754.41
2023-12-10T20:17:16.365Z,99747.36
2023-12-10T20:20:08.295Z,99746.16
2023-12-10T20:22:57.676Z,99739.02
2023-12-10T20:25:47.205Z,99737.80
2023-12-10T20:28:36.473Z,99736.66
2023-12-10T20:31:29.152Z,99737.27
2023-12-10T20:34:26.889Z,99732.98
2023-12-10T20:37:29.996Z,99733.48
2023-12-10T20:40:17.002Z,99735.84
2023-12-10T20:43:06.749Z,99733.62
2023-12-10T20:45:57.289Z,99734.38
2023-12-10T20:48:46.471Z,99733.53
2023-12-10T20:51:36.799Z,99728.95
2023-12-10T20:54:30.004Z,99723.58
2023-12-10T20:57:19.560Z,99719.05
2023-12-10T21:00:15.130Z,99717.64
2023-12-10T21:03:06.224Z,99711.20
2023-12-10T21:05:56.027Z,99709.23
2023-12-10T21:08:47.139Z,99702.63
2023-12-10T21:11:40.637Z,99704.44
2023-12-10T21:14:32.043Z,99701.15
2023-12-10T21:17:22.359Z,99701.34
2023-12-10T21:20:12.543Z,99701.50
2023-12-10T21:23:01.476Z,99697.46
2023-12-10T21:25:50.061Z,99694.73
2023-12-10T21:28:40.769Z,99693.66
2023-12-10T21:31:30.700Z,99688.39
2023-12-10T21:34:20.570Z,99687.11
2023-12-10T21:37:00.540Z,99686.88
2023-12-10T21:39:50.958Z,99685.62
2023-12-10T21:42:40.429Z,99690.16
2023-12-10T21:45:29.522Z,99682.92
2023-12-10T21:48:19.438Z,99676.90
2023-12-10T21:51:11.750Z,99675.42
2023-12-10T21:54:04.385Z,99671.61
2023-12-10T21:56:54.020Z,99666.57
2023-12-10T21:59:43.289Z,99665.58
2023-12-10T22:02:34.326Z,99663.33
2023-12-10T22:05:23.951Z,99660.31
2023-12-10T22:08:13.165Z,99654.21
2023-12-10T22:11:03.082Z,99649.30
2023-12-10T22:14:03.696Z,99640.76
2023-12-10T22:16:56.599Z,99635.13
2023-12-10T22:19:48.679Z,99628.34
2023-12-10T22:22:29.220Z,99622.00
2023-12-10T22:25:21.267Z,99615.38
2023-12-10T22:28:14.152Z,99616.77
2023-12-10T22:31:07.692Z,99617.09
2023-12-10T22:34:04.054Z,99616.86
2023-12-10T22:36:43.786Z,99611.27
2023-12-10T22:39:39.496Z,99600.96
2023-12-10T22:42:28.994Z,99596.94
2023-12-10T22:45:21.632Z,99594.67
2023-12-10T22:48:11.339Z,99589.63
2023-12-10T22:51:14.478Z,99584.60
2023-12-10T22:54:05.751Z,99578.64
2023-12-10T22:57:02.087Z,99570.31
2023-12-10T22:59:53.980Z,99569.63
2023-12-10T23:02:46.389Z,99563.95
2023-12-10T23:05:27.608Z,99560.45
2023-12-10T23:08:18.458Z,99556.64
2023-12-10T23:11:07.799Z,99558.23
2023-12-10T23:13:49.682Z,99555.43
2023-12-10T23:17:37.044Z,99558.28
2023-12-10T23:19:56.035Z,99551.51
2023-12-10T23:22:45.461Z,99551.89
2023-12-10T23:25:35.924Z,99551.19
2023-12-10T23:28:31.232Z,99547.70
2023-12-10T23:31:31.876Z,99545.63
2023-12-10T23:34:22.806Z,99545.72
2023-12-10T23:37:12.189Z,99545.41
2023-12-10T23:40:03.147Z,99544.71
2023-12-10T23:42:56.073Z,99544.30
2023-12-10T23:45:45.097Z,99545.07
2023-12-10T23:48:33.446Z,99544.04
2023-12-10T23:51:22.575Z,99540.65
2023-12-10T23:54:12.900Z,99536.83
2023-12-10T23:57:03.680Z,99531.25
2023-12-10T23:59:58.381Z,99528.28
